createdAt,value
2023-02-06T00:01:02.047Z,61.53
2023-02-06T00:04:17.105Z,62.10
2023-02-06T00:07:19.347Z,62.03
2023-02-06T00:10:21.763Z,60.57
2023-02-06T00:13:24.051Z,52.40
2023-02-06T00:16:29.266Z,56.33
2023-02-06T00:19:31.923Z,55.77
2023-02-06T00:22:34.230Z,55.97
2023-02-06T00:25:36.803Z,52.53
2023-02-06T00:28:39.003Z,46.97
2023-02-06T00:31:41.332Z,49.77
2023-02-06T00:34:44.562Z,49.07
2023-02-06T00:37:49.153Z,52.63
2023-02-06T00:40:51.197Z,50.87
2023-02-06T00:43:53.591Z,50.90
2023-02-06T00:46:56.214Z,49.73
2023-02-06T00:49:58.501Z,49.03
2023-02-06T00:53:00.582Z,48.07
2023-02-06T00:56:03.311Z,45.90
2023-02-06T00:59:06.253Z,45.30
2023-02-06T01:02:08.576Z,46.80
2023-02-06T01:05:11.341Z,46.53
2023-02-06T01:08:13.682Z,46.63
2023-02-06T01:11:21.987Z,48.43
2023-02-06T01:14:24.319Z,47.83
2023-02-06T01:17:26.614Z,46.63
2023-02-06T01:20:28.916Z,48.97
2023-02-06T01:23:30.920Z,48.67
2023-02-06T01:26:33.534Z,50.23
2023-02-06T01:29:35.560Z,59.43
2023-02-06T01:32:40.092Z,62.57
2023-02-06T01:35:42.082Z,63.27
2023-02-06T01:38:45.385Z,58.67
2023-02-06T01:41:48.422Z,58.23
2023-02-06T01:45:32.535Z,55.33
2023-02-06T01:48:45.658Z,54.87
2023-02-06T01:51:50.080Z,53.80
2023-02-06T01:54:57.148Z,55.47
2023-02-06T01:58:01.011Z,55.07
2023-02-06T02:01:04.419Z,52.40
2023-02-06T02:04:13.051Z,52.10
2023-02-06T02:07:24.281Z,52.13
2023-02-06T02:10:31.563Z,53.20
2023-02-06T02:13:34.388Z,53.23
2023-02-06T02:16:50.123Z,56.23
2023-02-06T02:20:28.106Z,54.33
2023-02-06T02:23:58.154Z,54.17
2023-02-06T02:27:36.803Z,54.40
2023-02-06T02:30:39.107Z,55.43
2023-02-06T02:33:50.180Z,53.10
2023-02-06T02:37:11.834Z,50.07
2023-02-06T02:40:46.298Z,48.13
2023-02-06T02:44:09.778Z,48.77
2023-02-06T02:47:14.369Z,55.00
2023-02-06T02:50:18.560Z,52.90
2023-02-06T02:53:21.241Z,52.47
2023-02-06T02:56:25.119Z,52.77
2023-02-06T02:59:41.303Z,49.40
2023-02-06T03:02:45.926Z,44.60
2023-02-06T03:06:04.985Z,44.30
2023-02-06T03:09:26.274Z,45.57
2023-02-06T03:12:58.221Z,46.37
2023-02-06T03:16:15.849Z,47.37
2023-02-06T03:19:23.650Z,48.93
2023-02-06T03:22:28.236Z,47.67
2023-02-06T03:25:36.304Z,47.33
2023-02-06T03:28:44.255Z,51.97
2023-02-06T03:32:17.331Z,62.40
2023-02-06T03:35:31.733Z,59.33
2023-02-06T03:38:33.927Z,55.73
2023-02-06T03:41:39.842Z,53.87
2023-02-06T03:44:47.307Z,54.77
2023-02-06T03:47:52.206Z,53.00
2023-02-06T03:50:57.659Z,54.07
2023-02-06T03:54:03.982Z,47.20
2023-02-06T03:57:08.594Z,42.60
2023-02-06T04:00:11.842Z,42.53
2023-02-06T04:03:14.727Z,41.90
2023-02-06T04:06:17.155Z,41.63
2023-02-06T04:09:19.177Z,40.50
2023-02-06T04:12:22.483Z,39.77
2023-02-06T04:15:25.571Z,42.13
2023-02-06T04:18:28.111Z,40.33
2023-02-06T04:21:30.128Z,40.80
2023-02-06T04:24:33.150Z,40.80
2023-02-06T04:27:35.321Z,41.27
2023-02-06T04:30:37.757Z,40.13
2023-02-06T04:33:40.829Z,40.80
2023-02-06T04:36:43.211Z,41.30
2023-02-06T04:39:45.203Z,38.90
2023-02-06T04:42:47.514Z,38.33
2023-02-06T04:45:49.645Z,37.80
2023-02-06T04:48:52.074Z,37.53
2023-02-06T04:51:54.084Z,39.13
2023-02-06T04:54:56.462Z,41.50
2023-02-06T04:57:58.470Z,43.70
2023-02-06T05:01:01.375Z,43.33
2023-02-06T05:04:03.906Z,43.13
2023-02-06T05:07:06.290Z,44.23
2023-02-06T05:10:09.398Z,43.60
2023-02-06T05:13:12.032Z,41.53
2023-02-06T05:16:15.920Z,40.47
2023-02-06T05:19:18.166Z,41.87
2023-02-06T05:22:20.176Z,42.93
2023-02-06T05:25:22.437Z,46.40
2023-02-06T05:28:25.219Z,43.37
2023-02-06T05:31:27.745Z,41.27
2023-02-06T05:34:29.802Z,42.07
2023-02-06T05:37:32.144Z,41.20
2023-02-06T05:40:34.276Z,40.23
2023-02-06T05:43:36.696Z,40.57
2023-02-06T05:46:38.858Z,41.13
2023-02-06T05:49:43.950Z,39.50
2023-02-06T05:52:46.039Z,39.40
2023-02-06T05:55:48.291Z,40.80
2023-02-06T05:58:50.363Z,39.90
2023-02-06T06:01:52.762Z,41.03
2023-02-06T06:04:54.875Z,39.23
2023-02-06T06:07:57.191Z,37.67
2023-02-06T06:11:01.188Z,38.90
2023-02-06T06:14:04.360Z,39.23
2023-02-06T06:17:06.518Z,40.40
2023-02-06T06:20:09.201Z,39.27
2023-02-06T06:23:11.309Z,39.40
2023-02-06T06:26:13.605Z,45.10
2023-02-06T06:29:15.670Z,47.33
2023-02-06T06:32:19.110Z,43.53
2023-02-06T06:35:21.136Z,48.07
2023-02-06T06:38:23.407Z,38.83
2023-02-06T06:41:25.529Z,39.07
2023-02-06T06:44:27.810Z,37.97
2023-02-06T06:47:29.882Z,38.10
2023-02-06T06:50:32.298Z,36.87
2023-02-06T06:53:34.559Z,38.27
2023-02-06T06:56:36.821Z,36.93
2023-02-06T06:59:39.427Z,36.53
2023-02-06T07:02:41.857Z,37.00
2023-02-06T07:05:43.915Z,37.67
2023-02-06T07:08:46.258Z,35.47
2023-02-06T07:11:48.335Z,36.80
2023-02-06T07:14:53.536Z,37.07
2023-02-06T07:17:55.537Z,36.13
2023-02-06T07:20:57.815Z,36.80
2023-02-06T07:24:01.765Z,37.67
2023-02-06T07:27:04.085Z,38.30
2023-02-06T07:30:06.727Z,39.67
2023-02-06T07:33:09.613Z,40.83
2023-02-06T07:36:13.858Z,42.00
2023-02-06T07:39:16.294Z,41.43
2023-02-06T07:42:18.873Z,42.47
2023-02-06T07:45:21.284Z,40.23
2023-02-06T07:48:23.275Z,38.87
2023-02-06T07:51:25.765Z,40.40
2023-02-06T07:54:27.842Z,39.93
2023-02-06T07:57:30.186Z,39.40
2023-02-06T08:00:32.179Z,40.23
2023-02-06T08:03:36.923Z,47.87
2023-02-06T08:06:42.658Z,61.03
2023-02-06T08:09:47.985Z,48.83
2023-02-06T08:12:50.090Z,47.80
2023-02-06T08:15:52.509Z,46.00
2023-02-06T08:18:54.560Z,43.23
2023-02-06T08:21:56.866Z,45.93
2023-02-06T08:24:58.850Z,43.47
2023-02-06T08:28:18.984Z,42.13
2023-02-06T08:31:29.085Z,38.00
2023-02-06T08:34:31.462Z,37.10
2023-02-06T08:37:33.510Z,36.93
2023-02-06T08:40:35.947Z,36.37
2023-02-06T08:43:37.925Z,37.27
2023-02-06T08:46:40.913Z,38.87
2023-02-06T08:49:42.928Z,41.87
2023-02-06T08:52:45.300Z,40.13
2023-02-06T08:55:47.298Z,41.07
2023-02-06T08:58:49.623Z,39.20
2023-02-06T09:01:52.249Z,34.30
2023-02-06T09:04:54.550Z,36.07
2023-02-06T09:07:56.666Z,45.73
2023-02-06T09:11:29.056Z,45.70
2023-02-06T09:14:31.767Z,35.17
2023-02-06T09:17:34.277Z,34.33
2023-02-06T09:20:36.413Z,35.20
2023-02-06T09:23:40.527Z,32.83
2023-02-06T09:26:58.436Z,33.70
2023-02-06T09:30:02.091Z,31.07
2023-02-06T09:33:04.235Z,33.03
2023-02-06T09:36:09.838Z,32.53
2023-02-06T09:39:11.959Z,31.63
2023-02-06T09:42:26.031Z,34.60
2023-02-06T09:45:30.092Z,32.20
2023-02-06T09:48:38.307Z,34.70
2023-02-06T09:52:13.300Z,29.93
2023-02-06T09:55:28.476Z,33.60
2023-02-06T09:58:59.571Z,38.20
2023-02-06T10:02:39.917Z,30.00
2023-02-06T10:05:48.057Z,32.57
2023-02-06T10:09:02.814Z,23.87
2023-02-06T10:12:25.234Z,25.73
2023-02-06T10:15:38.882Z,15.33
2023-02-06T10:18:46.248Z,18.87
2023-02-06T10:22:02.497Z,13.97
2023-02-06T10:25:30.202Z,17.13
2023-02-06T10:28:35.435Z,11.50
2023-02-06T10:31:45.189Z,22.37
2023-02-06T10:34:56.224Z,12.37
2023-02-06T10:38:22.822Z,25.73
2023-02-06T10:42:09.793Z,14.87
2023-02-06T10:45:33.366Z,17.00
2023-02-06T10:48:35.696Z,54.83
2023-02-06T10:51:45.295Z,21.33
2023-02-06T10:54:53.557Z,16.43
2023-02-06T10:58:14.699Z,13.07
2023-02-06T11:01:25.948Z,12.13
2023-02-06T11:05:05.084Z,9.33
2023-02-06T11:08:25.310Z,9.53
2023-02-06T11:11:31.228Z,10.07
2023-02-06T11:14:37.579Z,8.80
2023-02-06T11:17:39.626Z,8.80
2023-02-06T11:20:44.006Z,9.40
2023-02-06T11:23:48.316Z,8.87
2023-02-06T11:27:00.940Z,10.10
2023-02-06T11:30:09.381Z,10.70
2023-02-06T11:33:45.364Z,10.47
2023-02-06T11:36:52.390Z,9.70
2023-02-06T11:39:54.744Z,9.77
2023-02-06T11:43:18.915Z,9.77
2023-02-06T11:46:26.901Z,10.27
2023-02-06T11:49:29.484Z,10.03
2023-02-06T11:52:34.148Z,10.20
2023-02-06T11:55:38.504Z,10.30
2023-02-06T11:58:41.219Z,9.23
2023-02-06T12:01:47.898Z,9.50
2023-02-06T12:04:53.708Z,10.30
2023-02-06T12:08:10.437Z,10.23
2023-02-06T12:11:42.050Z,10.37
2023-02-06T12:14:59.188Z,10.13
2023-02-06T12:18:06.036Z,11.17
2023-02-06T12:21:15.411Z,11.23
2023-02-06T12:24:23.725Z,11.97
2023-02-06T12:27:39.561Z,12.27
2023-02-06T12:30:48.259Z,10.77
2023-02-06T12:33:55.401Z,11.30
2023-02-06T12:37:31.382Z,10.53
2023-02-06T12:41:21.432Z,10.63
2023-02-06T12:44:42.931Z,10.60
2023-02-06T12:48:01.364Z,9.60
2023-02-06T12:51:21.722Z,10.23
2023-02-06T12:54:32.822Z,8.10
2023-02-06T12:57:38.760Z,7.27
2023-02-06T13:01:31.037Z,8.37
2023-02-06T13:04:37.616Z,8.70
2023-02-06T13:07:49.048Z,8.43
2023-02-06T13:11:02.937Z,8.97
2023-02-06T13:14:24.016Z,8.67
2023-02-06T13:17:33.951Z,8.10
2023-02-06T13:21:14.103Z,8.40
2023-02-06T13:24:18.941Z,7.27
2023-02-06T13:27:41.663Z,7.93
2023-02-06T13:30:48.150Z,7.50
2023-02-06T13:33:53.240Z,10.10
2023-02-06T13:36:55.537Z,16.10
2023-02-06T13:40:26.520Z,9.03
2023-02-06T13:43:31.874Z,7.67
2023-02-06T13:47:02.232Z,7.43
2023-02-06T13:50:05.738Z,6.53
2023-02-06T13:53:23.038Z,7.73
2023-02-06T13:56:34.257Z,7.60
2023-02-06T13:59:42.116Z,6.90
2023-02-06T14:02:48.759Z,7.27
2023-02-06T14:06:24.728Z,8.37
2023-02-06T14:10:03.898Z,8.57
2023-02-06T14:13:39.448Z,8.87
2023-02-06T14:17:22.345Z,8.00
2023-02-06T14:20:30.524Z,8.87
2023-02-06T14:24:00.516Z,9.23
2023-02-06T14:27:19.799Z,8.37
2023-02-06T14:30:43.333Z,8.93
2023-02-06T14:34:06.617Z,8.83
2023-02-06T14:37:43.045Z,10.03
2023-02-06T14:40:50.638Z,14.60
2023-02-06T14:43:53.458Z,10.90
2023-02-06T14:46:56.947Z,9.80
2023-02-06T14:50:01.053Z,9.33
2023-02-06T14:53:15.173Z,9.80
2023-02-06T14:56:24.368Z,10.87
2023-02-06T14:59:26.543Z,11.63
2023-02-06T15:02:32.715Z,11.67
2023-02-06T15:05:35.642Z,11.23
2023-02-06T15:08:38.797Z,11.90
2023-02-06T15:11:40.783Z,11.87
2023-02-06T15:14:51.677Z,11.90
2023-02-06T15:18:04.636Z,11.93
2023-02-06T15:21:11.156Z,12.07
2023-02-06T15:24:32.139Z,13.27
2023-02-06T15:27:37.140Z,14.30
2023-02-06T15:30:39.793Z,15.43
2023-02-06T15:33:42.434Z,15.93
2023-02-06T15:36:44.744Z,15.40
2023-02-06T15:39:47.560Z,14.97
2023-02-06T15:42:51.078Z,14.90
2023-02-06T15:45:58.914Z,15.23
2023-02-06T15:49:01.144Z,16.00
2023-02-06T15:52:04.915Z,17.17
2023-02-06T15:55:07.112Z,16.37
2023-02-06T15:58:15.296Z,16.77
2023-02-06T16:01:20.310Z,16.23
2023-02-06T16:05:37.486Z,15.33
2023-02-06T16:12:16.360Z,19.27
2023-02-06T16:15:27.102Z,20.07
2023-02-06T16:18:39.500Z,36.80
2023-02-06T16:25:37.933Z,38.43
2023-02-06T16:28:51.344Z,59.37
2023-02-06T16:32:04.809Z,54.90
2023-02-06T16:35:12.447Z,39.83
2023-02-06T16:38:28.708Z,43.17
2023-02-06T16:41:51.117Z,35.73
2023-02-06T16:45:10.460Z,28.80
2023-02-06T16:48:17.321Z,30.23
2023-02-06T16:51:22.184Z,26.60
2023-02-06T16:54:27.938Z,26.30
2023-02-06T16:57:36.392Z,27.23
2023-02-06T17:00:39.120Z,27.53
2023-02-06T17:03:41.577Z,30.40
2023-02-06T17:06:44.092Z,30.50
2023-02-06T17:09:47.679Z,30.37
2023-02-06T17:12:50.930Z,27.10
2023-02-06T17:15:53.982Z,33.10
2023-02-06T17:18:56.655Z,32.33
2023-02-06T17:22:01.618Z,31.57
2023-02-06T17:25:03.828Z,30.17
2023-02-06T17:28:21.016Z,34.90
2023-02-06T17:31:23.419Z,28.90
2023-02-06T17:34:30.353Z,30.40
2023-02-06T17:37:33.397Z,30.30
2023-02-06T17:40:37.758Z,30.57
2023-02-06T17:43:40.254Z,33.50
2023-02-06T17:46:42.902Z,80.53
2023-02-06T17:49:46.902Z,99.37
2023-02-06T17:52:53.511Z,80.47
2023-02-06T17:56:02.846Z,81.37
2023-02-06T17:59:06.421Z,69.50
2023-02-06T18:02:12.828Z,85.07
2023-02-06T18:05:15.241Z,67.60
2023-02-06T18:08:18.462Z,90.77
2023-02-06T18:11:24.744Z,59.17
2023-02-06T18:14:26.726Z,83.03
2023-02-06T18:17:31.728Z,99.13
2023-02-06T18:20:35.997Z,101.63
2023-02-06T18:23:39.270Z,79.90
2023-02-06T18:26:41.527Z,93.30
2023-02-06T18:29:50.558Z,73.40
2023-02-06T18:32:55.875Z,71.47
2023-02-06T18:35:58.303Z,77.43
2023-02-06T18:39:00.635Z,84.47
2023-02-06T18:42:21.639Z,109.07
2023-02-06T18:45:26.287Z,92.83
2023-02-06T18:48:28.705Z,85.20
2023-02-06T18:51:31.291Z,82.77
2023-02-06T18:54:34.867Z,93.70
2023-02-06T18:57:39.722Z,100.00
2023-02-06T19:00:43.346Z,81.87
2023-02-06T19:03:45.465Z,87.70
2023-02-06T19:06:48.294Z,78.53
2023-02-06T19:09:50.324Z,93.37
2023-02-06T19:12:52.630Z,111.33
2023-02-06T19:16:06.380Z,122.73
2023-02-06T19:19:10.229Z,110.43
2023-02-06T19:22:13.100Z,104.30
2023-02-06T19:25:15.638Z,88.27
2023-02-06T19:28:17.708Z,87.00
2023-02-06T19:31:23.995Z,79.13
2023-02-06T19:34:39.941Z,87.90
2023-02-06T19:37:42.825Z,100.03
2023-02-06T19:40:47.453Z,86.77
2023-02-06T19:43:57.054Z,68.70
2023-02-06T19:47:00.444Z,66.10
2023-02-06T19:50:04.012Z,68.53
2023-02-06T19:53:10.270Z,93.67
2023-02-06T19:56:24.285Z,81.67
2023-02-06T19:59:34.300Z,75.43
2023-02-06T20:02:56.253Z,70.23
2023-02-06T20:06:17.485Z,61.60
2023-02-06T20:09:24.894Z,59.10
2023-02-06T20:12:31.616Z,54.33
2023-02-06T20:15:41.923Z,51.33
2023-02-06T20:18:54.278Z,71.93
2023-02-06T20:22:00.717Z,52.43
2023-02-06T20:25:03.156Z,54.10
2023-02-06T20:28:06.025Z,55.23
2023-02-06T20:31:10.275Z,83.83
2023-02-06T20:34:13.179Z,78.13
2023-02-06T20:37:27.515Z,77.03
2023-02-06T20:41:01.666Z,85.90
2023-02-06T20:44:14.320Z,94.63
2023-02-06T20:47:19.093Z,77.80
2023-02-06T20:50:24.753Z,105.43
2023-02-06T20:53:29.913Z,125.60
2023-02-06T20:56:34.054Z,374.63
2023-02-06T20:59:38.603Z,425.20
2023-02-06T21:02:43.273Z,303.13
2023-02-06T21:05:59.048Z,213.50
2023-02-06T21:09:07.123Z,147.80
2023-02-06T21:12:11.886Z,124.90
2023-02-06T21:15:18.416Z,132.37
2023-02-06T21:18:26.783Z,135.93
2023-02-06T21:21:28.813Z,137.97
2023-02-06T21:24:33.269Z,138.90
2023-02-06T21:27:35.360Z,133.80
2023-02-06T21:30:38.686Z,131.47
2023-02-06T21:33:41.002Z,132.27
2023-02-06T21:36:43.614Z,181.53
2023-02-06T21:39:45.652Z,131.73
2023-02-06T21:42:48.078Z,155.60
2023-02-06T21:46:05.254Z,140.47
2023-02-06T21:49:11.493Z,131.47
2023-02-06T21:52:22.715Z,141.93
2023-02-06T21:55:35.290Z,126.37
2023-02-06T21:58:41.024Z,122.83
2023-02-06T22:01:44.589Z,124.30
2023-02-06T22:04:46.896Z,90.50
2023-02-06T22:07:49.326Z,78.17
2023-02-06T22:10:51.409Z,84.10
2023-02-06T22:13:58.170Z,125.97
2023-02-06T22:17:00.827Z,86.17
2023-02-06T22:20:03.272Z,119.03
2023-02-06T22:23:08.999Z,77.80
2023-02-06T22:26:15.612Z,78.80
2023-02-06T22:29:18.451Z,97.43
2023-02-06T22:32:20.806Z,92.67
2023-02-06T22:35:22.837Z,94.00
2023-02-06T22:38:25.227Z,85.00
2023-02-06T22:41:27.975Z,77.97
2023-02-06T22:44:31.664Z,83.07
2023-02-06T22:47:33.910Z,85.27
2023-02-06T22:50:41.728Z,85.83
2023-02-06T22:53:56.528Z,83.33
2023-02-06T22:57:00.229Z,85.80
2023-02-06T23:00:09.762Z,85.03
2023-02-06T23:03:13.778Z,85.07
2023-02-06T23:06:16.699Z,139.00
2023-02-06T23:09:23.172Z,163.17
2023-02-06T23:12:25.198Z,157.07
2023-02-06T23:15:27.523Z,120.20
2023-02-06T23:18:29.929Z,120.20
2023-02-06T23:21:34.505Z,115.83
2023-02-06T23:24:36.955Z,117.37
2023-02-06T23:27:39.252Z,103.17
2023-02-06T23:30:41.284Z,90.53
2023-02-06T23:33:44.352Z,91.00
2023-02-06T23:36:47.079Z,95.63
2023-02-06T23:39:49.851Z,96.63
2023-02-06T23:42:51.834Z,89.77
2023-02-06T23:45:54.205Z,78.57
2023-02-06T23:48:57.232Z,73.37
2023-02-06T23:51:59.536Z,69.93
2023-02-06T23:55:01.875Z,69.30
2023-02-06T23:58:04.159Z,62.70
